• Join FlightAware (Why Join?)
  • Login
  • US Flag 
12:40PM EDT


 

Airport Tracker/Info


-or-


 

Live Flight TrackerFlight Track Log ✈ EJA829P ✈ 23-Mar-2014 ✈ KDAB - KMTH

Flight Track Log - Related Links

Times and Time Zones

All times are in EDT time to prevent confusion due to time zone crossing. See the EJA829P flight status page for this flight to view local times or setup timezone preferences in your user account.

Time Position Orientation Groundspeed Altitude Reporting Facility
EDT Latitude Longitude Course Direction KTS MPH feet Rate Location/Type
11:16AM 29.1703 -81.0828 241° Southwest 175 201 1,100  Level Jacksonville Center
11:17AM 29.1439 -81.1381 241° Southwest 198 228 4,900 2,760 Climbing Jacksonville Center
11:20AM 29.0667 -81.0833 148° Southeast 366 421 10,000 1,560 Climbing Orlando TRACON
11:21AM 29.0667 -80.9667 90° East 367 422 10,000  Level Orlando TRACON
11:22AM 29.0500 -80.8500 99° East 369 425 10,100 480 Climbing Orlando TRACON
11:23AM 28.9833 -80.7667 132° Southeast 375 432 11,000 900 Climbing Orlando TRACON
11:24AM 28.8831 -80.6419 133° Southeast 392 451 12,400 1,500 Climbing Miami Center
11:25AM 28.8247 -80.5617 130° Southeast 381 438 14,700 2,820 Climbing Miami Center
11:26AM 28.7436 -80.4692 135° Southeast 375 432 18,100 2,700 Climbing Miami Center
11:27AM 28.6475 -80.4731 182° South 324 373 20,100 1,680 Climbing Miami Center
11:28AM 28.5553 -80.4892 189° South 358 412 21,500 1,440 Climbing Miami Center
11:29AM 28.4506 -80.5069 188° South 379 436 23,000 720 Climbing Miami Center
11:30AM 28.3394 -80.5222 187° South 391 450 23,000 180 Level Miami Center
11:31AM 28.2264 -80.5397 188° South 408 470 23,400 480 Climbing Miami Center
11:32AM 28.1131 -80.5619 190° South 408 470 24,000 300 Climbing Miami Center
11:33AM 27.9978 -80.5792 188° South 415 478 24,000  Level Miami Center
11:34AM 27.8847 -80.5967 188° South 415 478 24,000  Level Miami Center
11:35AM 27.7672 -80.6164 188° South 420 483 24,000  Level Miami Center
11:36AM 27.6519 -80.6358 188° South 420 483 24,000  Level Miami Center
11:37AM 27.5367 -80.6533 188° South 425 489 24,000  Level Miami Center
11:38AM 27.4192 -80.6728 188° South 425 489 24,000  Level Miami Center
11:39AM 27.3019 -80.6922 188° South 425 489 24,000  Level Miami Center
11:40AM 27.1844 -80.7117 188° South 425 489 24,000  Level Miami Center
11:41AM 27.0650 -80.7311 188° South 425 489 24,000  Level Miami Center
11:42AM 26.9475 -80.7506 188° South 430 495 24,000  Level Miami Center
11:43AM 26.8300 -80.7697 188° South 430 495 24,000  Level Miami Center
11:44AM 26.7147 -80.7822 186° South 422 486 24,000  Level Miami Center
11:45AM 26.5869 -80.8036 189° South 427 491 24,000  Level Miami Center
11:46AM 26.4672 -80.8250 189° South 427 491 24,000  Level Miami Center
11:47AM 26.3603 -80.8400 187° South 432 497 24,000  Level Miami Center
11:48AM 26.2322 -80.8611 188° South 432 497 24,000  Level Miami Center
11:49AM 26.1150 -80.8803 188° South 427 491 24,000  Level Miami Center
11:50AM 25.9953 -80.8994 188° South 427 491 24,000  Level Miami Center
11:51AM 25.8758 -80.9186 188° South 427 491 24,000  Level Miami Center
11:52AM 25.7667 -80.9356 188° South 433 498 24,000 -960 Level Miami Center
11:53AM 25.6492 -80.9522 187° South 433 498 22,100 -9,000 Descending Miami Center
11:54AM 25.5403 -80.9694 188° South 416 479 6,000 -8,100 Descending Miami Center
11:55AM 25.4472 -81.0100 201° Southwest 384 442 6,000 2,640 Level Miami Center
11:56AM 25.3644 -81.0553 206° Southwest 417 480 11,300 1,200 Climbing Miami Center
11:57AM 25.2803 -81.0731 191° South 349 402 8,500 -2,520 Descending Miami Center
11:58AM 25.2031 -81.0706 178° South 309 356 6,300 -2,100 Descending Miami Center
11:59AM 25.1258 -81.0656 177° South 296 341 4,400 -1,500 Descending Miami Center
12:00PM 25.0508 -81.0631 178° South 280 322 3,400 -780 Descending Miami Center
12:01PM 24.9758 -81.0603 178° South 274 315 2,900 -300 Descending Miami Center
12:02PM 24.9047 -81.0581 178° South 269 310 2,900  Level Miami Center